sensor_id;sensor_type;location;lat;lon;timestamp;pressure;altitude;pressure_sealevel;temperature;humidity
59170;BME280;52474;52.236;5.114;2023-03-26T00:01:13;100754.13;;;6.54;100.00
59170;BME280;52474;52.236;5.114;2023-03-26T00:03:40;100756.00;;;6.52;100.00
59170;BME280;52474;52.236;5.114;2023-03-26T00:06:08;100744.97;;;6.47;100.00
59170;BME280;52474;52.236;5.114;2023-03-26T00:08:36;100756.88;;;6.52;100.00
59170;BME280;52474;52.236;5.114;2023-03-26T00:11:03;100748.25;;;6.50;100.00
59170;BME280;52474;52.236;5.114;2023-03-26T00:13:31;100751.19;;;6.45;100.00
59170;BME280;52474;52.236;5.114;2023-03-26T00:15:57;100752.84;;;6.47;100.00
59170;BME280;52474;52.236;5.114;2023-03-26T00:18:24;100744.56;;;6.40;100.00
59170;BME280;52474;52.236;5.114;2023-03-26T00:20:56;100744.22;;;6.44;100.00
59170;BME280;52474;52.236;5.114;2023-03-26T00:23:22;100749.63;;;6.43;100.00
59170;BME280;52474;52.236;5.114;2023-03-26T00:25:49;100746.34;;;6.39;100.00
59170;BME280;52474;52.236;5.114;2023-03-26T00:28:16;100748.03;;;6.40;100.00
59170;BME280;52474;52.236;5.114;2023-03-26T00:30:50;100731.75;;;6.35;100.00
59170;BME280;52474;52.236;5.114;2023-03-26T00:33:21;100737.31;;;6.31;100.00
59170;BME280;52474;52.236;5.114;2023-03-26T00:35:54;100738.47;;;6.27;100.00
59170;BME280;52474;52.236;5.114;2023-03-26T00:38:22;100738.78;;;6.22;100.00
59170;BME280;52474;52.236;5.114;2023-03-26T00:40:49;100725.53;;;6.11;100.00
59170;BME280;52474;52.236;5.114;2023-03-26T00:43:19;100729.41;;;6.05;100.00
59170;BME280;52474;52.236;5.114;2023-03-26T00:45:51;100721.75;;;6.02;100.00
59170;BME280;52474;52.236;5.114;2023-03-26T00:48:19;100721.84;;;6.00;100.00
59170;BME280;52474;52.236;5.114;2023-03-26T00:50:46;100730.59;;;6.01;100.00
59170;BME280;52474;52.236;5.114;2023-03-26T00:53:13;100731.00;;;5.95;100.00
59170;BME280;52474;52.236;5.114;2023-03-26T00:55:40;100704.13;;;5.90;100.00
59170;BME280;52474;52.236;5.114;2023-03-26T00:58:06;100710.22;;;5.90;100.00
59170;BME280;52474;52.236;5.114;2023-03-26T01:00:37;100717.84;;;5.95;100.00
59170;BME280;52474;52.236;5.114;2023-03-26T01:03:04;100719.53;;;5.96;100.00
59170;BME280;52474;52.236;5.114;2023-03-26T01:08:09;100686.19;;;5.84;100.00
59170;BME280;52474;52.236;5.114;2023-03-26T01:10:40;100705.22;;;6.00;100.00
59170;BME280;52474;52.236;5.114;2023-03-26T01:13:07;100683.34;;;5.87;100.00
59170;BME280;52474;52.236;5.114;2023-03-26T01:15:33;100698.06;;;6.02;100.00
59170;BME280;52474;52.236;5.114;2023-03-26T01:18:04;100692.91;;;6.00;100.00
59170;BME280;52474;52.236;5.114;2023-03-26T01:20:33;100696.28;;;6.02;100.00
59170;BME280;52474;52.236;5.114;2023-03-26T01:23:05;100691.91;;;6.03;100.00
59170;BME280;52474;52.236;5.114;2023-03-26T01:25:38;100678.00;;;6.01;100.00
59170;BME280;52474;52.236;5.114;2023-03-26T01:28:09;100672.75;;;6.01;100.00
59170;BME280;52474;52.236;5.114;2023-03-26T01:30:40;100663.28;;;5.98;100.00
59170;BME280;52474;52.236;5.114;2023-03-26T01:36:01;100667.81;;;5.96;100.00
59170;BME280;52474;52.236;5.114;2023-03-26T01:46:08;100655.03;;;5.77;100.00
59170;BME280;52474;52.236;5.114;2023-03-26T01:48:38;100639.38;;;5.63;100.00
59170;BME280;52474;52.236;5.114;2023-03-26T01:51:05;100646.84;;;5.69;100.00
59170;BME280;52474;52.236;5.114;2023-03-26T01:53:34;100638.22;;;5.67;100.00
59170;BME280;52474;52.236;5.114;2023-03-26T02:01:46;100631.91;;;5.70;100.00
59170;BME280;52474;52.236;5.114;2023-03-26T02:04:32;100626.56;;;5.71;100.00
59170;BME280;52474;52.236;5.114;2023-03-26T02:07:05;100625.00;;;5.69;100.00
59170;BME280;52474;52.236;5.114;2023-03-26T02:09:44;100599.34;;;5.47;100.00
59170;BME280;52474;52.236;5.114;2023-03-26T02:12:12;100631.19;;;5.55;100.00
59170;BME280;52474;52.236;5.114;2023-03-26T02:14:40;100628.56;;;5.42;100.00
59170;BME280;52474;52.236;5.114;2023-03-26T02:17:06;100622.13;;;5.33;100.00
59170;BME280;52474;52.236;5.114;2023-03-26T02:19:36;100620.13;;;5.24;100.00
59170;BME280;52474;52.236;5.114;2023-03-26T02:22:11;100607.06;;;5.10;100.00
59170;BME280;52474;52.236;5.114;2023-03-26T02:24:42;100622.53;;;5.27;100.00
59170;BME280;52474;52.236;5.114;2023-03-26T02:27:08;100618.78;;;5.44;100.00
59170;BME280;52474;52.236;5.114;2023-03-26T02:29:38;100612.19;;;5.51;100.00
59170;BME280;52474;52.236;5.114;2023-03-26T02:32:07;100598.38;;;5.60;100.00
59170;BME280;52474;52.236;5.114;2023-03-26T02:34:33;100592.50;;;5.70;100.00
59170;BME280;52474;52.236;5.114;2023-03-26T02:36:59;100605.03;;;5.79;100.00
59170;BME280;52474;52.236;5.114;2023-03-26T02:39:26;100564.97;;;5.75;100.00
59170;BME280;52474;52.236;5.114;2023-03-26T02:41:58;100567.78;;;5.85;100.00
59170;BME280;52474;52.236;5.114;2023-03-26T02:44:26;100573.19;;;5.96;100.00
59170;BME280;52474;52.236;5.114;2023-03-26T02:47:14;100583.25;;;6.02;100.00
59170;BME280;52474;52.236;5.114;2023-03-26T02:49:52;100572.53;;;6.06;100.00
59170;BME280;52474;52.236;5.114;2023-03-26T02:52:28;100579.97;;;6.12;100.00
59170;BME280;52474;52.236;5.114;2023-03-26T02:54:56;100564.75;;;6.04;100.00
59170;BME280;52474;52.236;5.114;2023-03-26T02:57:24;100574.28;;;6.18;100.00
59170;BME280;52474;52.236;5.114;2023-03-26T03:00:15;100580.66;;;6.27;100.00
59170;BME280;52474;52.236;5.114;2023-03-26T03:02:44;100580.56;;;6.28;100.00
59170;BME280;52474;52.236;5.114;2023-03-26T03:05:31;100568.34;;;6.27;100.00
59170;BME280;52474;52.236;5.114;2023-03-26T03:08:09;100546.22;;;6.18;100.00
59170;BME280;52474;52.236;5.114;2023-03-26T03:10:39;100574.97;;;6.33;100.00
59170;BME280;52474;52.236;5.114;2023-03-26T03:13:16;100579.19;;;6.35;100.00
59170;BME280;52474;52.236;5.114;2023-03-26T03:15:41;100570.00;;;6.41;100.00
59170;BME280;52474;52.236;5.114;2023-03-26T03:18:07;100558.50;;;6.42;100.00
59170;BME280;52474;52.236;5.114;2023-03-26T03:20:33;100559.88;;;6.48;100.00
59170;BME280;52474;52.236;5.114;2023-03-26T03:23:00;100552.81;;;6.48;100.00
59170;BME280;52474;52.236;5.114;2023-03-26T03:25:27;100527.59;;;6.45;100.00
59170;BME280;52474;52.236;5.114;2023-03-26T03:27:53;100543.81;;;6.63;100.00
59170;BME280;52474;52.236;5.114;2023-03-26T03:30:19;100538.19;;;6.68;100.00
59170;BME280;52474;52.236;5.114;2023-03-26T03:32:45;100545.53;;;6.76;100.00
59170;BME280;52474;52.236;5.114;2023-03-26T03:35:12;100543.53;;;6.79;100.00
59170;BME280;52474;52.236;5.114;2023-03-26T03:37:41;100550.34;;;6.82;100.00
59170;BME280;52474;52.236;5.114;2023-03-26T03:40:08;100537.88;;;6.84;100.00
59170;BME280;52474;52.236;5.114;2023-03-26T03:42:36;100471.59;;;6.43;100.00
59170;BME280;52474;52.236;5.114;2023-03-26T03:45:04;100530.72;;;6.86;100.00
59170;BME280;52474;52.236;5.114;2023-03-26T03:47:51;100526.53;;;6.83;100.00
59170;BME280;52474;52.236;5.114;2023-03-26T03:50:25;100511.94;;;6.79;100.00
59170;BME280;52474;52.236;5.114;2023-03-26T03:53:11;100531.84;;;6.95;100.00
59170;BME280;52474;52.236;5.114;2023-03-26T03:55:41;100526.44;;;6.96;100.00
59170;BME280;52474;52.236;5.114;2023-03-26T03:58:07;100530.28;;;7.03;100.00
59170;BME280;52474;52.236;5.114;2023-03-26T04:00:34;100505.84;;;6.90;100.00
59170;BME280;52474;52.236;5.114;2023-03-26T04:03:26;100530.09;;;7.06;100.00
59170;BME280;52474;52.236;5.114;2023-03-26T04:05:53;100523.13;;;7.05;100.00
59170;BME280;52474;52.236;5.114;2023-03-26T04:08:22;100529.84;;;7.09;100.00
59170;BME280;52474;52.236;5.114;2023-03-26T04:10:51;100520.25;;;7.08;100.00
59170;BME280;52474;52.236;5.114;2023-03-26T04:13:35;100524.22;;;7.14;100.00
59170;BME280;52474;52.236;5.114;2023-03-26T04:16:27;100516.81;;;7.19;100.00
59170;BME280;52474;52.236;5.114;2023-03-26T04:18:54;100514.91;;;7.21;100.00
59170;BME280;52474;52.236;5.114;2023-03-26T04:21:22;100507.59;;;7.25;100.00
59170;BME280;52474;52.236;5.114;2023-03-26T04:23:48;100500.78;;;7.22;100.00
59170;BME280;52474;52.236;5.114;2023-03-26T04:26:27;100493.59;;;7.24;100.00
59170;BME280;52474;52.236;5.114;2023-03-26T04:29:05;100492.63;;;7.25;100.00
59170;BME280;52474;52.236;5.114;2023-03-26T04:31:36;100483.06;;;7.24;100.00
59170;BME280;52474;52.236;5.114;2023-03-26T04:34:08;100476.22;;;7.22;100.00
59170;BME280;52474;52.236;5.114;2023-03-26T04:36:49;100456.84;;;7.12;100.00
59170;BME280;52474;52.236;5.114;2023-03-26T04:39:17;100473.25;;;7.26;100.00
59170;BME280;52474;52.236;5.114;2023-03-26T04:42:18;100469.16;;;7.22;100.00
59170;BME280;52474;52.236;5.114;2023-03-26T04:44:59;100457.31;;;7.17;100.00
59170;BME280;52474;52.236;5.114;2023-03-26T04:47:28;100466.78;;;7.19;100.00
59170;BME280;52474;52.236;5.114;2023-03-26T04:49:54;100460.88;;;7.16;100.00
59170;BME280;52474;52.236;5.114;2023-03-26T04:52:20;100422.34;;;6.92;100.00
59170;BME280;52474;52.236;5.114;2023-03-26T04:54:45;100459.22;;;7.15;100.00
59170;BME280;52474;52.236;5.114;2023-03-26T04:57:20;100448.94;;;7.12;100.00
59170;BME280;52474;52.236;5.114;2023-03-26T04:59:52;100439.69;;;7.06;100.00
59170;BME280;52474;52.236;5.114;2023-03-26T05:02:18;100447.00;;;7.14;100.00
59170;BME280;52474;52.236;5.114;2023-03-26T05:04:51;100438.25;;;7.13;100.00
59170;BME280;52474;52.236;5.114;2023-03-26T05:07:19;100436.59;;;7.12;100.00
59170;BME280;52474;52.236;5.114;2023-03-26T05:09:51;100432.28;;;7.11;100.00
59170;BME280;52474;52.236;5.114;2023-03-26T05:12:35;100415.88;;;6.96;100.00
59170;BME280;52474;52.236;5.114;2023-03-26T05:15:09;100429.28;;;7.04;100.00
59170;BME280;52474;52.236;5.114;2023-03-26T05:17:56;100435.50;;;7.03;100.00
59170;BME280;52474;52.236;5.114;2023-03-26T05:20:30;100433.00;;;7.02;100.00
59170;BME280;52474;52.236;5.114;2023-03-26T05:22:56;100426.41;;;6.96;100.00
59170;BME280;52474;52.236;5.114;2023-03-26T05:25:26;100429.75;;;6.98;100.00
59170;BME280;52474;52.236;5.114;2023-03-26T05:27:54;100429.03;;;6.96;100.00
59170;BME280;52474;52.236;5.114;2023-03-26T05:30:26;100423.06;;;6.94;100.00
59170;BME280;52474;52.236;5.114;2023-03-26T05:32:57;100422.09;;;6.95;100.00
59170;BME280;52474;52.236;5.114;2023-03-26T05:35:28;100419.56;;;6.94;100.00
59170;BME280;52474;52.236;5.114;2023-03-26T05:37:54;100417.66;;;6.96;100.00
59170;BME280;52474;52.236;5.114;2023-03-26T05:40:22;100409.78;;;6.96;100.00
59170;BME280;52474;52.236;5.114;2023-03-26T05:43:07;100413.13;;;6.98;100.00
59170;BME280;52474;52.236;5.114;2023-03-26T05:45:54;100414.69;;;7.00;100.00
59170;BME280;52474;52.236;5.114;2023-03-26T05:48:26;100414.56;;;7.02;100.00
59170;BME280;52474;52.236;5.114;2023-03-26T05:50:53;100404.25;;;6.99;100.00
59170;BME280;52474;52.236;5.114;2023-03-26T05:53:21;100391.59;;;6.93;100.00
59170;BME280;52474;52.236;5.114;2023-03-26T05:56:06;100402.59;;;6.98;100.00
59170;BME280;52474;52.236;5.114;2023-03-26T05:58:50;100370.28;;;6.84;100.00
59170;BME280;52474;52.236;5.114;2023-03-26T06:01:34;100401.63;;;6.99;100.00
59170;BME280;52474;52.236;5.114;2023-03-26T06:04:19;100401.16;;;6.94;100.00
59170;BME280;52474;52.236;5.114;2023-03-26T06:06:58;100396.97;;;6.91;100.00
59170;BME280;52474;52.236;5.114;2023-03-26T06:09:24;100379.97;;;6.84;100.00
59170;BME280;52474;52.236;5.114;2023-03-26T06:11:50;100382.59;;;6.84;100.00
59170;BME280;52474;52.236;5.114;2023-03-26T06:14:16;100383.56;;;6.83;100.00
59170;BME280;52474;52.236;5.114;2023-03-26T06:17:02;100387.50;;;6.88;100.00
59170;BME280;52474;52.236;5.114;2023-03-26T06:19:34;100378.53;;;6.91;100.00
59170;BME280;52474;52.236;5.114;2023-03-26T06:22:09;100365.25;;;6.93;100.00
59170;BME280;52474;52.236;5.114;2023-03-26T06:24:55;100367.53;;;6.97;100.00
59170;BME280;52474;52.236;5.114;2023-03-26T06:27:43;100358.81;;;6.97;100.00
59170;BME280;52474;52.236;5.114;2023-03-26T06:30:44;100362.25;;;7.08;100.00
59170;BME280;52474;52.236;5.114;2023-03-26T06:33:45;100339.16;;;7.01;100.00
59170;BME280;52474;52.236;5.114;2023-03-26T06:36:13;100361.44;;;7.19;100.00
59170;BME280;52474;52.236;5.114;2023-03-26T06:38:39;100356.16;;;7.19;100.00
59170;BME280;52474;52.236;5.114;2023-03-26T06:41:06;100355.19;;;7.20;100.00
59170;BME280;52474;52.236;5.114;2023-03-26T06:43:58;100338.56;;;7.20;100.00
59170;BME280;52474;52.236;5.114;2023-03-26T06:47:13;100352.66;;;7.30;100.00
59170;BME280;52474;52.236;5.114;2023-03-26T06:49:51;100359.97;;;7.38;100.00
59170;BME280;52474;52.236;5.114;2023-03-26T06:52:37;100358.75;;;7.42;100.00
59170;BME280;52474;52.236;5.114;2023-03-26T06:55:12;100350.75;;;7.32;100.00
59170;BME280;52474;52.236;5.114;2023-03-26T06:58:00;100349.78;;;7.33;100.00
59170;BME280;52474;52.236;5.114;2023-03-26T07:00:44;100344.03;;;7.28;100.00
59170;BME280;52474;52.236;5.114;2023-03-26T07:03:28;100359.47;;;7.44;100.00
59170;BME280;52474;52.236;5.114;2023-03-26T07:06:12;100356.84;;;7.32;100.00
59170;BME280;52474;52.236;5.114;2023-03-26T07:08:57;100362.59;;;7.38;100.00
59170;BME280;52474;52.236;5.114;2023-03-26T07:11:41;100336.28;;;7.26;100.00
59170;BME280;52474;52.236;5.114;2023-03-26T07:14:39;100362.59;;;7.38;100.00
59170;BME280;52474;52.236;5.114;2023-03-26T07:17:34;100367.28;;;7.34;100.00
59170;BME280;52474;52.236;5.114;2023-03-26T07:20:11;100359.13;;;7.26;100.00
59170;BME280;52474;52.236;5.114;2023-03-26T07:22:38;100360.34;;;7.22;100.00
59170;BME280;52474;52.236;5.114;2023-03-26T07:25:34;100364.75;;;7.32;100.00
59170;BME280;52474;52.236;5.114;2023-03-26T07:28:41;100353.63;;;7.29;100.00
59170;BME280;52474;52.236;5.114;2023-03-26T07:31:17;100343.25;;;7.16;100.00
59170;BME280;52474;52.236;5.114;2023-03-26T07:34:21;100354.09;;;7.23;100.00
59170;BME280;52474;52.236;5.114;2023-03-26T07:43:55;100352.81;;;7.17;100.00
59170;BME280;52474;52.236;5.114;2023-03-26T07:47:23;100356.78;;;7.12;100.00
59170;BME280;52474;52.236;5.114;2023-03-26T07:50:18;100357.09;;;7.18;100.00
59170;BME280;52474;52.236;5.114;2023-03-26T07:53:03;100358.44;;;7.24;100.00
59170;BME280;52474;52.236;5.114;2023-03-26T07:56:20;100352.09;;;7.26;100.00
59170;BME280;52474;52.236;5.114;2023-03-26T07:59:41;100343.31;;;7.37;100.00
59170;BME280;52474;52.236;5.114;2023-03-26T08:02:39;100354.22;;;7.32;100.00
59170;BME280;52474;52.236;5.114;2023-03-26T08:06:06;100331.84;;;7.16;100.00
59170;BME280;52474;52.236;5.114;2023-03-26T08:09:01;100347.88;;;7.35;100.00
59170;BME280;52474;52.236;5.114;2023-03-26T08:17:35;100341.88;;;7.44;100.00
59170;BME280;52474;52.236;5.114;2023-03-26T08:20:21;100349.16;;;7.52;100.00
59170;BME280;52474;52.236;5.114;2023-03-26T08:23:41;100343.41;;;7.47;100.00
59170;BME280;52474;52.236;5.114;2023-03-26T08:25:45;100344.81;;;7.62;100.00
59170;BME280;52474;52.236;5.114;2023-03-26T08:30:51;100342.44;;;7.59;100.00
59170;BME280;52474;52.236;5.114;2023-03-26T08:33:20;100342.91;;;7.64;100.00
59170;BME280;52474;52.236;5.114;2023-03-26T08:35:52;100339.38;;;7.75;100.00
59170;BME280;52474;52.236;5.114;2023-03-26T08:38:21;100332.19;;;7.77;100.00
59170;BME280;52474;52.236;5.114;2023-03-26T09:10:39;100347.16;;;7.33;100.00
59170;BME280;52474;52.236;5.114;2023-03-26T09:27:29;100356.69;;;7.68;100.00
59170;BME280;52474;52.236;5.114;2023-03-26T09:38:33;100355.50;;;7.38;100.00
59170;BME280;52474;52.236;5.114;2023-03-26T09:46:55;100357.28;;;7.60;100.00
59170;BME280;52474;52.236;5.114;2023-03-26T09:52:07;100368.06;;;7.68;100.00
59170;BME280;52474;52.236;5.114;2023-03-26T10:00:34;100366.81;;;7.72;100.00
59170;BME280;52474;52.236;5.114;2023-03-26T10:05:56;100379.78;;;7.76;100.00
59170;BME280;52474;52.236;5.114;2023-03-26T10:09:19;100372.50;;;7.68;100.00
59170;BME280;52474;52.236;5.114;2023-03-26T10:28:42;100386.41;;;7.59;100.00
59170;BME280;52474;52.236;5.114;2023-03-26T10:37:09;100370.13;;;7.53;100.00
59170;BME280;52474;52.236;5.114;2023-03-26T10:45:44;100400.41;;;7.59;100.00
59170;BME280;52474;52.236;5.114;2023-03-26T10:53:53;100410.38;;;7.44;100.00
59170;BME280;52474;52.236;5.114;2023-03-26T10:56:31;100391.94;;;7.33;100.00
59170;BME280;52474;52.236;5.114;2023-03-26T10:59:05;100416.69;;;7.64;100.00
59170;BME280;52474;52.236;5.114;2023-03-26T11:12:21;100414.72;;;7.78;100.00
59170;BME280;52474;52.236;5.114;2023-03-26T11:20:35;100413.13;;;8.30;100.00
59170;BME280;52474;52.236;5.114;2023-03-26T11:26:03;100412.50;;;8.37;100.00
59170;BME280;52474;52.236;5.114;2023-03-26T11:34:10;100428.78;;;9.06;100.00
59170;BME280;52474;52.236;5.114;2023-03-26T11:36:40;100435.41;;;9.21;100.00
59170;BME280;52474;52.236;5.114;2023-03-26T11:39:14;100431.53;;;9.65;100.00
59170;BME280;52474;52.236;5.114;2023-03-26T11:41:44;100418.06;;;9.88;100.00
59170;BME280;52474;52.236;5.114;2023-03-26T11:44:39;100418.50;;;9.93;100.00
59170;BME280;52474;52.236;5.114;2023-03-26T11:47:09;100422.81;;;10.23;100.00
59170;BME280;52474;52.236;5.114;2023-03-26T11:49:38;100433.94;;;10.85;100.00
59170;BME280;52474;52.236;5.114;2023-03-26T11:52:05;100424.91;;;10.88;100.00
59170;BME280;52474;52.236;5.114;2023-03-26T11:54:32;100427.63;;;11.43;100.00
59170;BME280;52474;52.236;5.114;2023-03-26T11:57:13;100428.41;;;11.53;100.00
59170;BME280;52474;52.236;5.114;2023-03-26T11:59:46;100436.47;;;11.24;100.00
59170;BME280;52474;52.236;5.114;2023-03-26T12:02:28;100418.09;;;11.23;100.00
59170;BME280;52474;52.236;5.114;2023-03-26T12:07:48;100439.66;;;11.37;100.00
59170;BME280;52474;52.236;5.114;2023-03-26T12:10:25;100435.66;;;10.77;100.00
59170;BME280;52474;52.236;5.114;2023-03-26T12:12:54;100432.94;;;11.06;100.00
59170;BME280;52474;52.236;5.114;2023-03-26T12:15:21;100436.47;;;10.77;100.00
59170;BME280;52474;52.236;5.114;2023-03-26T12:17:50;100446.50;;;10.93;100.00
59170;BME280;52474;52.236;5.114;2023-03-26T12:25:20;100445.69;;;11.57;100.00
59170;BME280;52474;52.236;5.114;2023-03-26T12:30:23;100439.53;;;11.67;100.00
59170;BME280;52474;52.236;5.114;2023-03-26T12:32:51;100459.91;;;11.29;100.00
59170;BME280;52474;52.236;5.114;2023-03-26T12:35:25;100473.06;;;11.21;100.00
59170;BME280;52474;52.236;5.114;2023-03-26T12:37:54;100460.50;;;10.66;100.00
59170;BME280;52474;52.236;5.114;2023-03-26T12:43:22;100481.09;;;10.82;100.00
59170;BME280;52474;52.236;5.114;2023-03-26T12:45:55;100480.81;;;10.56;100.00
59170;BME280;52474;52.236;5.114;2023-03-26T12:48:23;100480.84;;;10.36;100.00
59170;BME280;52474;52.236;5.114;2023-03-26T12:54:20;100476.75;;;10.22;100.00
59170;BME280;52474;52.236;5.114;2023-03-26T12:59:41;100480.53;;;10.29;100.00
59170;BME280;52474;52.236;5.114;2023-03-26T13:28:02;100515.31;;;10.15;100.00
59170;BME280;52474;52.236;5.114;2023-03-26T13:32:53;100513.78;;;10.13;100.00
59170;BME280;52474;52.236;5.114;2023-03-26T13:46:25;100531.22;;;9.75;100.00
59170;BME280;52474;52.236;5.114;2023-03-26T13:49:15;100538.25;;;9.95;100.00
59170;BME280;52474;52.236;5.114;2023-03-26T13:51:50;100539.97;;;10.25;100.00
59170;BME280;52474;52.236;5.114;2023-03-26T13:54:46;100552.38;;;10.25;100.00
59170;BME280;52474;52.236;5.114;2023-03-26T13:57:25;100530.56;;;10.42;100.00
59170;BME280;52474;52.236;5.114;2023-03-26T14:00:08;100548.47;;;10.19;100.00
59170;BME280;52474;52.236;5.114;2023-03-26T14:02:45;100553.38;;;10.24;100.00
59170;BME280;52474;52.236;5.114;2023-03-26T14:05:26;100536.50;;;10.25;100.00
59170;BME280;52474;52.236;5.114;2023-03-26T14:08:09;100552.22;;;9.76;100.00
59170;BME280;52474;52.236;5.114;2023-03-26T14:10:42;100568.94;;;10.17;100.00
59170;BME280;52474;52.236;5.114;2023-03-26T14:13:35;100547.28;;;9.93;100.00
59170;BME280;52474;52.236;5.114;2023-03-26T14:16:23;100568.63;;;10.51;100.00
59170;BME280;52474;52.236;5.114;2023-03-26T14:19:02;100573.94;;;10.51;100.00
59170;BME280;52474;52.236;5.114;2023-03-26T14:41:20;100630.25;;;8.75;100.00
59170;BME280;52474;52.236;5.114;2023-03-26T14:44:04;100630.13;;;8.77;100.00
59170;BME280;52474;52.236;5.114;2023-03-26T14:46:52;100625.75;;;9.19;100.00
59170;BME280;52474;52.236;5.114;2023-03-26T14:52:50;100620.81;;;9.26;100.00
59170;BME280;52474;52.236;5.114;2023-03-26T14:58:49;100634.41;;;8.89;100.00
59170;BME280;52474;52.236;5.114;2023-03-26T15:01:27;100637.19;;;8.88;100.00
59170;BME280;52474;52.236;5.114;2023-03-26T15:04:17;100630.94;;;8.89;100.00
59170;BME280;52474;52.236;5.114;2023-03-26T15:13:06;100664.97;;;8.37;100.00
59170;BME280;52474;52.236;5.114;2023-03-26T15:30:27;100685.13;;;8.15;100.00
59170;BME280;52474;52.236;5.114;2023-03-26T15:36:15;100694.84;;;8.15;100.00
59170;BME280;52474;52.236;5.114;2023-03-26T15:45:09;100707.06;;;8.27;100.00
59170;BME280;52474;52.236;5.114;2023-03-26T15:47:28;100727.69;;;8.22;100.00
59170;BME280;52474;52.236;5.114;2023-03-26T15:50:28;100736.78;;;8.29;100.00
59170;BME280;52474;52.236;5.114;2023-03-26T15:53:57;100733.94;;;8.10;100.00
59170;BME280;52474;52.236;5.114;2023-03-26T16:01:57;100735.50;;;7.66;100.00
59170;BME280;52474;52.236;5.114;2023-03-26T16:04:37;100753.97;;;7.77;100.00
59170;BME280;52474;52.236;5.114;2023-03-26T16:07:26;100767.47;;;7.61;100.00
59170;BME280;52474;52.236;5.114;2023-03-26T16:12:46;100761.19;;;7.51;100.00
59170;BME280;52474;52.236;5.114;2023-03-26T16:15:29;100778.75;;;7.63;100.00
59170;BME280;52474;52.236;5.114;2023-03-26T16:20:49;100778.25;;;7.34;100.00
59170;BME280;52474;52.236;5.114;2023-03-26T16:28:34;100790.09;;;7.16;100.00
59170;BME280;52474;52.236;5.114;2023-03-26T16:36:32;100802.88;;;6.96;100.00
59170;BME280;52474;52.236;5.114;2023-03-26T16:45:03;100846.22;;;6.79;100.00
59170;BME280;52474;52.236;5.114;2023-03-26T16:55:52;100861.47;;;6.49;100.00
59170;BME280;52474;52.236;5.114;2023-03-26T17:03:49;100886.41;;;6.43;100.00
59170;BME280;52474;52.236;5.114;2023-03-26T17:20:41;100903.38;;;6.12;100.00
59170;BME280;52474;52.236;5.114;2023-03-26T17:29:06;100933.00;;;6.01;100.00
59170;BME280;52474;52.236;5.114;2023-03-26T17:31:42;100940.44;;;5.94;100.00
59170;BME280;52474;52.236;5.114;2023-03-26T17:34:41;100945.13;;;5.89;100.00
59170;BME280;52474;52.236;5.114;2023-03-26T17:47:46;100959.00;;;5.21;100.00
59170;BME280;52474;52.236;5.114;2023-03-26T17:50:17;100928.41;;;4.91;100.00
59170;BME280;52474;52.236;5.114;2023-03-26T17:53:27;100962.09;;;5.13;100.00
59170;BME280;52474;52.236;5.114;2023-03-26T17:55:36;100966.03;;;5.06;100.00
59170;BME280;52474;52.236;5.114;2023-03-26T17:58:06;100976.34;;;4.95;100.00
59170;BME280;52474;52.236;5.114;2023-03-26T18:00:41;100971.72;;;4.84;100.00
59170;BME280;52474;52.236;5.114;2023-03-26T18:05:42;101000.53;;;5.00;100.00
59170;BME280;52474;52.236;5.114;2023-03-26T18:08:13;101000.16;;;5.06;100.00
59170;BME280;52474;52.236;5.114;2023-03-26T18:21:08;101027.00;;;5.40;100.00
59170;BME280;52474;52.236;5.114;2023-03-26T18:23:38;101036.66;;;5.40;100.00
59170;BME280;52474;52.236;5.114;2023-03-26T18:26:09;101035.63;;;5.42;100.00
59170;BME280;52474;52.236;5.114;2023-03-26T18:28:40;101053.28;;;5.40;100.00
59170;BME280;52474;52.236;5.114;2023-03-26T18:31:08;101056.84;;;5.39;100.00
59170;BME280;52474;52.236;5.114;2023-03-26T18:33:40;101056.72;;;5.41;100.00
59170;BME280;52474;52.236;5.114;2023-03-26T18:36:07;101061.91;;;5.42;100.00
59170;BME280;52474;52.236;5.114;2023-03-26T18:38:35;101070.53;;;5.44;100.00
59170;BME280;52474;52.236;5.114;2023-03-26T18:41:01;101083.00;;;5.41;100.00
59170;BME280;52474;52.236;5.114;2023-03-26T18:43:26;101084.22;;;5.35;100.00
59170;BME280;52474;52.236;5.114;2023-03-26T18:45:52;101089.75;;;5.30;100.00
59170;BME280;52474;52.236;5.114;2023-03-26T18:48:22;101096.56;;;5.19;100.00
59170;BME280;52474;52.236;5.114;2023-03-26T18:50:55;101104.97;;;5.09;100.00
59170;BME280;52474;52.236;5.114;2023-03-26T18:53:24;101111.94;;;4.94;100.00
59170;BME280;52474;52.236;5.114;2023-03-26T18:55:52;101112.66;;;4.82;100.00
59170;BME280;52474;52.236;5.114;2023-03-26T18:58:21;101120.13;;;4.74;100.00
59170;BME280;52474;52.236;5.114;2023-03-26T19:00:47;101121.31;;;4.68;100.00
59170;BME280;52474;52.236;5.114;2023-03-26T19:03:14;101126.47;;;4.70;100.00
59170;BME280;52474;52.236;5.114;2023-03-26T19:05:43;101131.44;;;4.74;100.00
59170;BME280;52474;52.236;5.114;2023-03-26T19:08:08;101129.25;;;4.67;100.00
59170;BME280;52474;52.236;5.114;2023-03-26T19:10:34;101139.75;;;4.67;100.00
59170;BME280;52474;52.236;5.114;2023-03-26T19:13:01;101143.56;;;4.77;100.00
59170;BME280;52474;52.236;5.114;2023-03-26T19:15:31;101155.25;;;4.87;100.00
59170;BME280;52474;52.236;5.114;2023-03-26T19:17:58;101159.94;;;4.97;100.00
59170;BME280;52474;52.236;5.114;2023-03-26T19:20:41;101156.22;;;5.01;100.00
59170;BME280;52474;52.236;5.114;2023-03-26T19:23:08;101159.94;;;4.97;100.00
59170;BME280;52474;52.236;5.114;2023-03-26T19:28:04;101170.31;;;4.84;100.00
59170;BME280;52474;52.236;5.114;2023-03-26T19:30:32;101178.09;;;4.69;100.00
59170;BME280;52474;52.236;5.114;2023-03-26T19:33:03;101170.66;;;4.62;100.00
59170;BME280;52474;52.236;5.114;2023-03-26T19:35:52;101181.13;;;4.62;100.00